Terminal Aerodrome Forecast
Issued by NWS Atlanta, GA

Home | Current Version | Previous Version | Text Only | Print | Product List | Glossary On
Versions: 1 2 3 4 5 6 7 8 9 10 11 12 13 14 15 16 17 18 19 20 21 22 23 24 25 26 27 28 29 30 31 32 33 34 35 36 37 38
000
FTUS42 KFFC 301944 AAA
TAFATL
TAF AMD
KATL 301944Z 3020/3124 19015G22KT P6SM FEW060 BKN200
     FM302300 20012G20KT P6SM VCSH BKN050
     FM310300 19010KT 5SM -SHRA BKN030
      TEMPO 3104/3108 VRB20G30KT 3SM TSRA BKN020CB
     FM310800 23010KT P6SM VCSH OVC015
     FM311500 27014KT P6SM BKN030
     FM311800 27015G22KT P6SM SCT050=

USA.gov is the U.S. government's official web portal to all federal, state and local government web resources and services.